createdAt,value
2022-11-26T00:01:41.426Z,11.80
2022-11-26T00:04:13.024Z,11.80
2022-11-26T00:06:46.017Z,11.80
2022-11-26T00:09:19.283Z,11.70
2022-11-26T00:11:50.873Z,11.50
2022-11-26T00:14:22.635Z,11.30
2022-11-26T00:16:54.319Z,11.10
2022-11-26T00:19:26.161Z,10.90
2022-11-26T00:21:59.159Z,10.80
2022-11-26T00:24:30.874Z,10.60
2022-11-26T00:27:02.582Z,10.40
2022-11-26T00:29:34.270Z,10.30
2022-11-26T00:32:08.734Z,10.10
2022-11-26T00:34:40.480Z,10.00
2022-11-26T00:37:18.409Z,9.80
2022-11-26T00:39:50.548Z,9.70
2022-11-26T00:42:22.175Z,9.60
2022-11-26T00:44:53.767Z,9.50
2022-11-26T00:47:25.372Z,9.40
2022-11-26T00:49:57.002Z,9.40
2022-11-26T00:52:32.925Z,9.30
2022-11-26T00:55:08.024Z,9.30
2022-11-26T00:57:39.651Z,9.20
2022-11-26T01:00:14.267Z,9.20
2022-11-26T01:02:46.183Z,9.20
2022-11-26T01:05:18.688Z,9.20
2022-11-26T01:07:51.892Z,9.20
2022-11-26T01:10:24.950Z,9.20
2022-11-26T01:12:56.599Z,9.20
2022-11-26T01:15:28.300Z,9.20
2022-11-26T01:17:59.935Z,9.20
2022-11-26T01:20:31.584Z,9.20
2022-11-26T01:23:04.535Z,9.20
2022-11-26T01:25:36.173Z,9.20
2022-11-26T01:28:10.479Z,9.20
2022-11-26T01:30:42.301Z,9.20
2022-11-26T01:33:13.900Z,9.20
2022-11-26T01:35:45.545Z,9.20
2022-11-26T01:38:18.588Z,9.20
2022-11-26T01:41:11.131Z,9.20
2022-11-26T01:43:43.307Z,9.20
2022-11-26T01:46:15.497Z,9.10
2022-11-26T01:48:48.720Z,9.10
2022-11-26T01:51:24.918Z,9.10
2022-11-26T01:53:59.147Z,9.10
2022-11-26T01:56:32.380Z,9.10
2022-11-26T01:59:07.460Z,9.10
2022-11-26T02:01:39.364Z,9.10
2022-11-26T02:04:12.823Z,9.10
2022-11-26T02:06:46.744Z,9.00
2022-11-26T02:09:20.111Z,9.10
2022-11-26T02:11:51.766Z,9.10
2022-11-26T02:14:24.267Z,9.10
2022-11-26T02:17:07.387Z,9.10
2022-11-26T02:19:54.318Z,9.10
2022-11-26T02:22:37.846Z,9.10
2022-11-26T02:25:17.225Z,9.10
2022-11-26T02:28:00.787Z,9.10
2022-11-26T02:30:36.409Z,9.10
2022-11-26T02:33:10.229Z,9.10
2022-11-26T02:35:43.638Z,9.10
2022-11-26T02:38:17.373Z,9.10
2022-11-26T02:40:49.066Z,9.00
2022-11-26T02:43:20.739Z,9.10
2022-11-26T02:45:55.730Z,9.10
2022-11-26T02:48:29.487Z,9.10
2022-11-26T02:51:03.731Z,9.10
2022-11-26T02:53:35.870Z,9.10
2022-11-26T02:56:09.302Z,9.10
2022-11-26T02:58:41.060Z,9.00
2022-11-26T03:01:19.023Z,9.00
2022-11-26T03:03:52.771Z,9.00
2022-11-26T03:06:25.820Z,9.00
2022-11-26T03:08:57.466Z,9.00
2022-11-26T03:11:29.204Z,9.00
2022-11-26T03:14:00.863Z,9.00
2022-11-26T03:16:33.920Z,9.00
2022-11-26T03:19:05.677Z,9.00
2022-11-26T03:21:37.301Z,9.00
2022-11-26T03:24:09.111Z,9.00
2022-11-26T03:26:40.716Z,8.90
2022-11-26T03:29:12.338Z,8.90
2022-11-26T03:31:45.351Z,8.90
2022-11-26T03:34:17.036Z,8.90
2022-11-26T03:36:48.640Z,8.90
2022-11-26T03:39:20.273Z,8.90
2022-11-26T03:41:51.900Z,8.90
2022-11-26T03:44:23.578Z,8.90
2022-11-26T03:46:56.531Z,8.90
2022-11-26T03:49:28.216Z,8.90
2022-11-26T03:51:59.848Z,8.90
2022-11-26T03:54:31.510Z,8.90
2022-11-26T03:57:03.164Z,8.90
2022-11-26T03:59:34.928Z,8.90
2022-11-26T04:02:07.961Z,8.90
2022-11-26T04:04:39.845Z,8.90
2022-11-26T04:07:11.781Z,8.90
2022-11-26T04:09:43.554Z,8.80
2022-11-26T04:12:15.155Z,8.80
2022-11-26T04:14:46.753Z,8.80
2022-11-26T04:17:19.705Z,8.80
2022-11-26T04:19:51.317Z,8.80
2022-11-26T04:22:23.073Z,8.80
2022-11-26T04:24:54.697Z,8.80
2022-11-26T04:27:26.337Z,8.80
2022-11-26T04:29:58.001Z,8.80
2022-11-26T04:32:30.980Z,8.80
2022-11-26T04:35:02.845Z,8.70
2022-11-26T04:37:34.848Z,8.80
2022-11-26T04:40:07.303Z,8.70
2022-11-26T04:42:38.953Z,8.70
2022-11-26T04:45:11.089Z,8.70
2022-11-26T04:47:44.086Z,8.70
2022-11-26T04:50:15.729Z,8.70
2022-11-26T04:52:48.534Z,8.70
2022-11-26T04:55:20.273Z,8.70
2022-11-26T04:57:51.893Z,8.70
2022-11-26T05:00:23.659Z,8.70
2022-11-26T05:02:56.765Z,8.70
2022-11-26T05:05:28.490Z,8.70
2022-11-26T05:08:00.215Z,8.70
2022-11-26T05:10:31.895Z,8.70
2022-11-26T05:13:03.617Z,8.70
2022-11-26T05:15:35.406Z,8.60
2022-11-26T05:18:08.544Z,8.70
2022-11-26T05:20:40.165Z,8.70
2022-11-26T05:23:11.797Z,8.60
2022-11-26T05:25:43.411Z,8.60
2022-11-26T05:28:15.034Z,8.60
2022-11-26T05:30:46.726Z,8.50
2022-11-26T05:33:19.900Z,8.50
2022-11-26T05:35:51.506Z,8.50
2022-11-26T05:38:23.311Z,8.50
2022-11-26T05:40:54.949Z,8.50
2022-11-26T05:43:26.599Z,8.30
2022-11-26T05:46:02.770Z,8.30
2022-11-26T05:48:35.796Z,8.20
2022-11-26T05:51:07.588Z,8.10
2022-11-26T05:53:39.207Z,8.10
2022-11-26T05:56:10.824Z,8.00
2022-11-26T05:58:42.880Z,7.90
2022-11-26T06:01:14.650Z,7.90
2022-11-26T06:03:47.659Z,7.80
2022-11-26T06:06:19.302Z,7.70
2022-11-26T06:08:51.276Z,7.70
2022-11-26T06:11:22.901Z,7.60
2022-11-26T06:13:54.516Z,7.60
2022-11-26T06:16:26.285Z,7.50
2022-11-26T06:18:59.313Z,7.40
2022-11-26T06:21:30.920Z,7.30
2022-11-26T06:24:02.721Z,7.30
2022-11-26T06:26:34.436Z,7.20
2022-11-26T06:29:06.164Z,7.20
2022-11-26T06:31:37.824Z,7.10
2022-11-26T06:34:10.876Z,7.10
2022-11-26T06:36:42.663Z,7.00
2022-11-26T06:39:14.363Z,7.00
2022-11-26T06:41:46.053Z,6.90
2022-11-26T06:44:17.694Z,6.90
2022-11-26T06:46:49.335Z,6.80
2022-11-26T06:49:22.328Z,6.70
2022-11-26T06:51:54.106Z,6.70
2022-11-26T06:54:25.724Z,6.60
2022-11-26T06:56:57.523Z,6.60
2022-11-26T06:59:29.382Z,6.60
2022-11-26T07:02:01.114Z,6.50
2022-11-26T07:04:34.138Z,6.50
2022-11-26T07:07:05.748Z,6.50
2022-11-26T07:09:38.688Z,6.50
2022-11-26T07:12:10.834Z,6.40
2022-11-26T07:14:42.875Z,6.40
2022-11-26T07:17:14.551Z,6.40
2022-11-26T07:19:47.568Z,6.40
2022-11-26T07:22:19.159Z,6.40
2022-11-26T07:24:50.779Z,6.40
2022-11-26T07:27:22.400Z,6.30
2022-11-26T07:29:54.006Z,6.30
2022-11-26T07:32:26.660Z,6.30
2022-11-26T07:35:00.451Z,6.30
2022-11-26T07:37:32.530Z,6.30
2022-11-26T07:40:04.981Z,6.20
2022-11-26T07:42:36.855Z,6.20
2022-11-26T07:45:08.765Z,6.20
2022-11-26T07:47:40.391Z,6.30
2022-11-26T07:50:13.445Z,6.30
2022-11-26T07:52:45.337Z,6.30
2022-11-26T07:55:16.977Z,6.30
2022-11-26T07:57:48.624Z,6.30
2022-11-26T08:00:20.525Z,6.30
2022-11-26T08:02:52.210Z,6.30
2022-11-26T08:05:25.247Z,6.20
2022-11-26T08:07:56.902Z,6.20
2022-11-26T08:10:28.578Z,6.20
2022-11-26T08:13:00.185Z,6.30
2022-11-26T08:15:32.313Z,6.30
2022-11-26T08:18:04.058Z,6.30
2022-11-26T08:20:37.068Z,6.30
2022-11-26T08:23:08.679Z,6.30
2022-11-26T08:25:59.258Z,6.30
2022-11-26T08:28:31.874Z,6.30
2022-11-26T08:31:04.153Z,6.30
2022-11-26T08:33:36.270Z,6.30
2022-11-26T08:36:10.253Z,6.30
2022-11-26T08:38:42.036Z,6.20
2022-11-26T08:41:14.037Z,6.30
2022-11-26T08:44:05.730Z,6.30
2022-11-26T08:46:38.534Z,6.30
2022-11-26T08:49:12.087Z,6.40
2022-11-26T08:51:45.106Z,6.40
2022-11-26T08:54:16.747Z,6.50
2022-11-26T08:56:48.367Z,6.50
2022-11-26T08:59:22.904Z,6.60
2022-11-26T09:01:54.594Z,6.70
2022-11-26T09:04:26.395Z,6.80
2022-11-26T09:07:05.110Z,6.80
2022-11-26T09:09:52.415Z,6.90
2022-11-26T09:13:01.978Z,7.00
2022-11-26T09:16:00.221Z,7.10
2022-11-26T09:21:31.597Z,7.30
2022-11-26T09:24:17.935Z,7.30
2022-11-26T09:27:07.792Z,7.30
2022-11-26T09:29:54.131Z,7.40
2022-11-26T09:32:37.790Z,7.50
2022-11-26T09:35:23.111Z,7.50
2022-11-26T09:37:57.822Z,7.60
2022-11-26T09:40:36.301Z,7.60
2022-11-26T09:43:15.258Z,7.70
2022-11-26T09:48:26.067Z,7.80
2022-11-26T09:51:32.552Z,7.80
2022-11-26T09:54:30.720Z,7.90
2022-11-26T10:13:44.032Z,8.20
2022-11-26T10:23:18.763Z,8.30
2022-11-26T10:25:56.839Z,8.40
2022-11-26T10:32:24.969Z,8.40
2022-11-26T10:38:55.228Z,8.50
2022-11-26T10:41:29.631Z,8.50
2022-11-26T10:44:16.285Z,8.60
2022-11-26T10:46:47.993Z,8.60
2022-11-26T10:49:22.786Z,8.70
2022-11-26T10:51:56.002Z,8.70
2022-11-26T10:54:32.244Z,8.70
2022-11-26T10:57:17.289Z,8.70
2022-11-26T10:59:51.660Z,8.60
2022-11-26T11:02:30.768Z,8.60
2022-11-26T11:05:04.190Z,8.60
2022-11-26T11:08:25.573Z,8.70
2022-11-26T11:10:58.325Z,8.70
2022-11-26T11:13:41.207Z,8.70
2022-11-26T11:16:13.961Z,8.70
2022-11-26T11:18:49.830Z,8.70
2022-11-26T11:21:21.739Z,8.70
2022-11-26T11:24:09.339Z,8.80
2022-11-26T11:26:42.409Z,8.80
2022-11-26T11:29:32.850Z,8.80
2022-11-26T11:32:06.914Z,8.80
2022-11-26T11:34:39.993Z,8.90
2022-11-26T11:37:14.960Z,8.90
2022-11-26T11:40:01.704Z,8.90
2022-11-26T11:42:33.314Z,9.00
2022-11-26T11:45:06.640Z,9.00
2022-11-26T11:47:43.046Z,9.00
2022-11-26T11:50:19.918Z,9.00
2022-11-26T11:52:56.065Z,9.00
2022-11-26T11:55:36.498Z,9.00
2022-11-26T11:58:19.460Z,9.00
2022-11-26T12:00:53.285Z,9.10
2022-11-26T12:03:41.973Z,9.10
2022-11-26T12:06:49.127Z,9.10
2022-11-26T12:09:25.495Z,9.10
2022-11-26T12:11:58.982Z,9.10
2022-11-26T12:15:19.941Z,9.10
2022-11-26T12:17:54.433Z,9.00
2022-11-26T12:20:30.188Z,9.10
2022-11-26T12:23:12.967Z,9.10
2022-11-26T12:25:49.776Z,9.10
2022-11-26T12:28:25.662Z,9.10
2022-11-26T12:31:01.369Z,9.10
2022-11-26T12:33:35.005Z,9.10
2022-11-26T12:36:11.897Z,9.10
2022-11-26T12:38:45.346Z,9.10
2022-11-26T12:41:19.241Z,9.10
2022-11-26T12:43:53.174Z,9.20
2022-11-26T12:46:27.530Z,9.30
2022-11-26T12:49:03.247Z,9.40
2022-11-26T12:51:38.780Z,9.40
2022-11-26T12:54:14.883Z,9.30
2022-11-26T12:56:52.712Z,9.30
2022-11-26T12:59:26.665Z,9.30
2022-11-26T13:01:58.644Z,9.30
2022-11-26T13:04:37.599Z,9.30
2022-11-26T13:07:18.282Z,9.40
2022-11-26T13:09:59.143Z,9.50
2022-11-26T13:12:36.195Z,9.60
2022-11-26T13:15:12.931Z,10.30
2022-11-26T13:17:45.726Z,11.20
2022-11-26T13:20:37.063Z,11.50
2022-11-26T13:23:15.380Z,11.80
2022-11-26T13:26:01.915Z,11.90
2022-11-26T13:28:43.375Z,12.00
2022-11-26T13:31:23.230Z,12.00
2022-11-26T13:34:04.437Z,11.90
2022-11-26T13:36:46.380Z,11.90
2022-11-26T13:39:39.228Z,11.80
2022-11-26T13:42:18.415Z,11.80
2022-11-26T13:45:07.747Z,11.70
2022-11-26T13:47:41.340Z,11.60
2022-11-26T13:50:14.944Z,11.60
2022-11-26T13:52:51.126Z,11.60
2022-11-26T13:55:25.707Z,11.60
2022-11-26T13:58:00.035Z,11.60
2022-11-26T14:00:32.751Z,11.50
2022-11-26T14:03:04.443Z,11.50
2022-11-26T14:05:57.218Z,11.50
2022-11-26T14:08:36.627Z,11.50
2022-11-26T14:11:09.850Z,11.50
2022-11-26T14:13:41.517Z,11.50
2022-11-26T14:16:13.213Z,11.50
2022-11-26T14:19:02.960Z,11.50
2022-11-26T14:21:59.182Z,11.40
2022-11-26T14:24:51.902Z,11.40
2022-11-26T14:27:25.583Z,11.40
2022-11-26T14:30:10.385Z,11.40
2022-11-26T14:32:45.596Z,11.30
2022-11-26T14:35:19.165Z,11.30
2022-11-26T14:37:54.244Z,11.20
2022-11-26T14:40:27.244Z,11.20
2022-11-26T14:43:16.923Z,11.20
2022-11-26T14:46:00.698Z,11.10
2022-11-26T14:48:34.012Z,11.10
2022-11-26T14:51:07.566Z,11.00
2022-11-26T14:53:42.812Z,10.90
2022-11-26T14:56:14.775Z,10.90
2022-11-26T14:58:48.574Z,10.80
2022-11-26T15:01:22.735Z,10.80
2022-11-26T15:03:58.243Z,10.80
2022-11-26T15:06:36.141Z,10.70
2022-11-26T15:09:20.560Z,10.70
2022-11-26T15:12:10.370Z,10.70
2022-11-26T15:14:43.012Z,10.60
2022-11-26T15:17:17.698Z,10.60
2022-11-26T15:19:52.960Z,10.50
2022-11-26T15:22:35.240Z,10.50
2022-11-26T15:25:12.477Z,10.40
2022-11-26T15:27:48.775Z,10.40
2022-11-26T15:30:21.687Z,10.30
2022-11-26T15:32:58.338Z,10.30
2022-11-26T15:35:30.563Z,10.20
2022-11-26T15:38:08.239Z,10.20
2022-11-26T15:40:43.870Z,10.10
2022-11-26T15:43:19.192Z,10.10
2022-11-26T15:45:51.697Z,10.10
2022-11-26T15:48:36.337Z,10.00
2022-11-26T15:51:08.631Z,10.00
2022-11-26T15:53:44.508Z,9.90
2022-11-26T15:56:16.759Z,9.80
2022-11-26T15:58:50.108Z,9.80
2022-11-26T16:01:23.450Z,9.70
2022-11-26T16:03:56.871Z,9.70
2022-11-26T16:06:29.898Z,9.60
2022-11-26T16:09:04.003Z,9.50
2022-11-26T16:11:37.012Z,9.40
2022-11-26T16:14:23.767Z,9.30
2022-11-26T16:16:56.150Z,9.20
2022-11-26T16:19:30.171Z,9.10
2022-11-26T16:22:02.386Z,9.10
2022-11-26T16:24:38.658Z,9.00
2022-11-26T16:27:24.298Z,9.10
2022-11-26T16:29:56.283Z,9.30
2022-11-26T16:32:27.928Z,9.50
2022-11-26T16:35:17.477Z,9.80
2022-11-26T16:37:52.463Z,10.00
2022-11-26T16:40:24.551Z,10.30
2022-11-26T16:42:56.173Z,10.50
2022-11-26T16:45:27.875Z,10.60
2022-11-26T16:47:59.472Z,10.70
2022-11-26T16:50:32.506Z,10.90
2022-11-26T16:53:04.155Z,11.00
2022-11-26T16:55:36.849Z,11.10
2022-11-26T16:58:13.493Z,11.20
2022-11-26T17:00:45.134Z,11.30
2022-11-26T17:03:16.825Z,11.40
2022-11-26T17:05:50.425Z,11.50
2022-11-26T17:08:22.749Z,11.70
2022-11-26T17:10:54.355Z,11.80
2022-11-26T17:13:28.745Z,11.80
2022-11-26T17:16:01.419Z,11.90
2022-11-26T17:18:33.148Z,11.90
2022-11-26T17:21:06.325Z,11.90
2022-11-26T17:23:37.923Z,12.00
2022-11-26T17:26:14.543Z,12.00
2022-11-26T17:28:46.277Z,12.00
2022-11-26T17:31:18.168Z,12.00
2022-11-26T17:33:51.021Z,12.00
2022-11-26T17:36:24.189Z,12.00
2022-11-26T17:38:55.780Z,12.00
2022-11-26T17:41:27.442Z,12.00
2022-11-26T17:43:59.054Z,11.90
2022-11-26T17:46:35.749Z,11.90
2022-11-26T17:49:19.889Z,11.90
2022-11-26T17:51:52.905Z,11.90
2022-11-26T17:54:24.628Z,11.90
2022-11-26T17:56:56.233Z,11.90
2022-11-26T17:59:27.840Z,11.90
2022-11-26T18:01:59.668Z,11.90
2022-11-26T18:04:31.355Z,11.90
2022-11-26T18:07:05.882Z,11.90
2022-11-26T18:09:38.242Z,11.90
2022-11-26T18:12:20.150Z,11.90
2022-11-26T18:14:55.443Z,11.90
2022-11-26T18:17:27.091Z,11.90
2022-11-26T18:19:58.833Z,11.90
2022-11-26T18:22:31.837Z,11.80
2022-11-26T18:25:03.661Z,11.80
2022-11-26T18:27:35.592Z,11.80
2022-11-26T18:30:08.052Z,11.80
2022-11-26T18:32:39.878Z,11.70
2022-11-26T18:35:12.087Z,11.70
2022-11-26T18:37:45.028Z,11.60
2022-11-26T18:40:17.704Z,11.50
2022-11-26T18:42:51.167Z,11.40
2022-11-26T18:45:22.831Z,11.40
2022-11-26T18:47:54.483Z,11.40
2022-11-26T18:50:26.151Z,11.40
2022-11-26T18:52:59.334Z,11.40
2022-11-26T18:55:30.924Z,11.40
2022-11-26T18:58:07.738Z,11.40
2022-11-26T19:00:39.767Z,11.40
2022-11-26T19:03:12.195Z,11.40
2022-11-26T19:05:51.837Z,11.40
2022-11-26T19:08:24.827Z,11.40
2022-11-26T19:10:56.507Z,11.30
2022-11-26T19:13:28.107Z,11.30
2022-11-26T19:15:59.751Z,11.30
2022-11-26T19:18:31.348Z,11.30
2022-11-26T19:27:23.460Z,11.30
2022-11-26T19:29:55.085Z,11.30
2022-11-26T19:32:26.748Z,11.30
2022-11-26T19:35:04.167Z,11.20
2022-11-26T19:37:37.374Z,11.20
2022-11-26T19:40:09.597Z,11.20
2022-11-26T19:42:42.545Z,11.20
2022-11-26T19:45:14.237Z,11.20
2022-11-26T19:47:46.003Z,11.20
2022-11-26T19:50:17.653Z,11.10
2022-11-26T19:52:49.227Z,11.00
2022-11-26T19:55:20.866Z,11.10
2022-11-26T19:57:54.316Z,10.90
2022-11-26T20:00:25.962Z,10.80
2022-11-26T20:02:57.620Z,10.60
2022-11-26T20:05:29.324Z,10.60
2022-11-26T20:08:01.024Z,10.50
2022-11-26T20:10:33.086Z,10.50
2022-11-26T20:13:06.415Z,10.50
2022-11-26T20:15:40.612Z,10.50
2022-11-26T20:18:12.269Z,10.50
2022-11-26T20:20:43.966Z,10.50
2022-11-26T20:23:15.639Z,10.40
2022-11-26T20:25:47.315Z,10.30
2022-11-26T20:28:20.637Z,10.30
2022-11-26T20:30:52.354Z,10.30
2022-11-26T20:33:24.347Z,10.30
2022-11-26T20:35:56.151Z,10.30
2022-11-26T20:38:27.718Z,10.30
2022-11-26T20:40:59.326Z,10.20
2022-11-26T20:43:33.026Z,10.20
2022-11-26T20:46:05.494Z,10.20
2022-11-26T20:48:38.306Z,10.10
2022-11-26T20:51:10.881Z,10.10
2022-11-26T20:53:43.170Z,10.10
2022-11-26T20:56:14.877Z,10.10
2022-11-26T20:58:47.991Z,10.00
2022-11-26T21:01:20.680Z,10.00
2022-11-26T21:03:52.913Z,9.90
2022-11-26T21:09:02.819Z,9.80
2022-11-26T21:11:34.936Z,9.80
2022-11-26T21:14:13.413Z,9.70
2022-11-26T21:16:46.913Z,9.70
2022-11-26T21:19:18.908Z,9.70
2022-11-26T21:21:50.488Z,9.70
2022-11-26T21:24:22.132Z,9.60
2022-11-26T21:26:53.860Z,9.60
2022-11-26T21:29:33.012Z,9.70
2022-11-26T21:32:05.291Z,9.70
2022-11-26T21:34:36.911Z,9.60
2022-11-26T21:37:08.975Z,9.70
2022-11-26T21:39:40.774Z,9.60
2022-11-26T21:42:12.626Z,9.60
2022-11-26T21:44:45.729Z,9.60
2022-11-26T21:47:17.316Z,9.70
2022-11-26T21:49:48.942Z,9.70
2022-11-26T21:52:20.582Z,9.70
2022-11-26T21:54:52.462Z,9.70
2022-11-26T21:57:24.165Z,9.70
2022-11-26T21:59:57.114Z,9.70
2022-11-26T22:02:28.822Z,9.80
2022-11-26T22:05:00.458Z,9.80
2022-11-26T22:07:32.210Z,9.80
2022-11-26T22:10:04.592Z,9.80
2022-11-26T22:12:36.181Z,9.80
2022-11-26T22:15:09.784Z,9.80
2022-11-26T22:17:41.454Z,9.80
2022-11-26T22:20:13.277Z,9.80
2022-11-26T22:22:44.852Z,9.90
2022-11-26T22:25:16.628Z,9.80
2022-11-26T22:27:48.209Z,9.80
2022-11-26T22:30:21.448Z,9.80
2022-11-26T22:32:53.035Z,9.70
2022-11-26T22:35:24.633Z,9.80
2022-11-26T22:37:56.323Z,9.70
2022-11-26T22:40:28.095Z,9.70
2022-11-26T22:43:01.086Z,9.70
2022-11-26T22:45:36.618Z,9.70
2022-11-26T22:48:10.655Z,9.80
2022-11-26T22:50:49.220Z,9.80
2022-11-26T22:53:21.287Z,9.80
2022-11-26T22:55:54.180Z,9.80
2022-11-26T22:58:26.622Z,9.80
2022-11-26T23:01:00.383Z,9.80
2022-11-26T23:03:33.412Z,9.70
2022-11-26T23:06:06.464Z,9.70
2022-11-26T23:08:38.424Z,9.70
2022-11-26T23:11:10.861Z,9.60
2022-11-26T23:13:43.306Z,9.60
2022-11-26T23:16:16.839Z,9.60
2022-11-26T23:18:48.586Z,9.60
2022-11-26T23:21:21.091Z,9.70
2022-11-26T23:23:53.144Z,9.70
2022-11-26T23:26:27.391Z,9.70
2022-11-26T23:29:01.375Z,9.80
2022-11-26T23:31:35.453Z,9.80
2022-11-26T23:34:07.644Z,9.80
2022-11-26T23:36:39.373Z,9.90
2022-11-26T23:39:11.859Z,9.90
2022-11-26T23:41:44.571Z,9.90
2022-11-26T23:44:16.188Z,9.90
2022-11-26T23:46:49.227Z,9.90
2022-11-26T23:49:22.796Z,10.00
2022-11-26T23:51:54.389Z,10.00
2022-11-26T23:54:26.104Z,10.00
2022-11-26T23:56:57.760Z,10.00
2022-11-26T23:59:29.485Z,10.00
